createdAt,value
2019-05-17T00:02:06.959Z,8.60
2019-05-17T00:04:51.671Z,8.50
2019-05-17T00:07:37.158Z,8.50
2019-05-17T00:10:30.721Z,8.40
2019-05-17T00:13:17.410Z,8.20
2019-05-17T00:16:02.403Z,8.20
2019-05-17T00:18:48.292Z,8.20
2019-05-17T00:21:32.683Z,8.20
2019-05-17T00:24:18.265Z,8.10
2019-05-17T00:27:12.652Z,8.30
2019-05-17T00:30:06.581Z,8.50
2019-05-17T00:32:51.067Z,8.70
2019-05-17T00:35:37.629Z,8.80
2019-05-17T00:38:21.959Z,8.80
2019-05-17T00:41:07.161Z,8.70
2019-05-17T00:43:52.311Z,8.60
2019-05-17T00:46:37.364Z,8.50
2019-05-17T00:49:31.070Z,8.30
2019-05-17T00:52:16.711Z,8.20
2019-05-17T00:55:01.349Z,8.10
2019-05-17T00:57:56.399Z,8.10
2019-05-17T01:00:40.581Z,8.00
2019-05-17T01:03:26.945Z,8.00
2019-05-17T01:06:11.746Z,7.90
2019-05-17T01:09:01.912Z,8.10
2019-05-17T01:11:43.057Z,8.40
2019-05-17T01:14:28.085Z,8.50
2019-05-17T01:17:22.659Z,8.50
2019-05-17T01:20:07.210Z,8.60
2019-05-17T01:22:52.175Z,8.50
2019-05-17T01:25:37.989Z,8.30
2019-05-17T01:28:22.401Z,8.30
2019-05-17T01:31:17.241Z,8.20
2019-05-17T01:34:02.281Z,8.20
2019-05-17T01:36:47.150Z,8.10
2019-05-17T01:39:33.523Z,8.10
2019-05-17T01:42:18.391Z,7.90
2019-05-17T01:45:03.097Z,7.90
2019-05-17T01:47:47.986Z,7.70
2019-05-17T01:50:32.518Z,7.60
2019-05-17T01:53:17.601Z,7.50
2019-05-17T01:56:02.030Z,7.50
2019-05-17T01:58:47.112Z,7.50
2019-05-17T02:01:31.815Z,7.60
2019-05-17T02:04:17.368Z,7.50
2019-05-17T02:07:02.675Z,7.50
2019-05-17T02:09:47.660Z,7.40
2019-05-17T02:12:32.565Z,7.40
2019-05-17T02:15:17.429Z,7.40
2019-05-17T02:18:02.029Z,7.40
2019-05-17T02:20:46.489Z,7.30
2019-05-17T02:23:31.870Z,7.40
2019-05-17T02:26:17.336Z,7.30
2019-05-17T02:29:03.458Z,7.40
2019-05-17T02:31:57.417Z,7.40
2019-05-17T02:34:43.171Z,7.50
2019-05-17T02:37:27.634Z,7.70
2019-05-17T02:40:14.386Z,7.60
2019-05-17T02:43:02.795Z,7.50
2019-05-17T02:45:45.253Z,7.50
2019-05-17T02:48:33.397Z,7.40
2019-05-17T02:51:16.861Z,7.30
2019-05-17T02:54:04.053Z,7.20
2019-05-17T02:56:48.174Z,7.30
2019-05-17T02:59:33.296Z,7.10
2019-05-17T03:02:17.821Z,7.00
2019-05-17T03:05:03.963Z,6.90
2019-05-17T03:07:52.601Z,7.00
2019-05-17T03:10:34.928Z,7.00
2019-05-17T03:13:19.311Z,7.00
2019-05-17T03:16:14.628Z,6.80
2019-05-17T03:18:59.491Z,6.90
2019-05-17T03:21:44.144Z,6.90
2019-05-17T03:24:28.998Z,6.90
2019-05-17T03:27:14.013Z,6.90
2019-05-17T03:30:08.009Z,6.90
2019-05-17T03:32:56.439Z,6.90
2019-05-17T03:35:38.988Z,6.90
2019-05-17T03:38:23.699Z,7.00
2019-05-17T03:41:18.197Z,7.00
2019-05-17T03:44:04.253Z,6.90
2019-05-17T03:46:48.986Z,6.90
2019-05-17T03:49:34.028Z,6.90
2019-05-17T03:52:18.747Z,6.80
2019-05-17T03:55:04.262Z,6.70
2019-05-17T03:57:58.026Z,6.70
2019-05-17T04:00:53.474Z,6.80
2019-05-17T04:03:38.309Z,6.70
2019-05-17T04:06:23.815Z,6.60
2019-05-17T04:09:18.570Z,6.50
2019-05-17T04:12:03.688Z,6.50
2019-05-17T04:14:47.867Z,6.40
2019-05-17T04:17:33.155Z,6.40
2019-05-17T04:20:17.796Z,6.20
2019-05-17T04:23:03.971Z,6.20
2019-05-17T04:25:48.210Z,6.20
2019-05-17T04:28:44.034Z,6.30
2019-05-17T04:31:30.572Z,6.50
2019-05-17T04:34:14.075Z,6.60
2019-05-17T04:36:59.278Z,6.70
2019-05-17T04:39:44.014Z,6.80
2019-05-17T04:42:28.705Z,6.90
2019-05-17T04:45:13.120Z,7.00
2019-05-17T04:47:57.983Z,7.10
2019-05-17T04:50:43.008Z,7.20
2019-05-17T04:53:28.170Z,7.30
2019-05-17T04:56:13.957Z,7.40
2019-05-17T04:59:03.182Z,7.50
2019-05-17T05:01:46.590Z,7.60
2019-05-17T05:04:33.364Z,7.70
2019-05-17T05:07:17.995Z,7.80
2019-05-17T05:10:03.270Z,7.90
2019-05-17T05:12:48.089Z,8.00
2019-05-17T05:15:33.098Z,8.20
2019-05-17T05:18:17.650Z,8.30
2019-05-17T05:21:03.639Z,8.60
2019-05-17T05:23:48.446Z,8.90
2019-05-17T05:26:33.070Z,9.10
2019-05-17T05:29:17.930Z,9.30
2019-05-17T05:32:02.869Z,9.50
2019-05-17T05:34:57.381Z,9.80
2019-05-17T05:37:42.756Z,10.00
2019-05-17T05:40:36.582Z,10.10
2019-05-17T05:43:22.642Z,10.30
2019-05-17T05:46:07.574Z,10.40
2019-05-17T05:48:52.339Z,10.60
2019-05-17T05:51:37.303Z,10.60
2019-05-17T05:54:22.611Z,10.70
2019-05-17T05:57:16.225Z,10.90
2019-05-17T06:00:02.282Z,11.00
2019-05-17T06:02:56.684Z,11.20
2019-05-17T06:05:42.881Z,11.40
2019-05-17T06:08:27.771Z,11.60
2019-05-17T06:11:12.394Z,11.80
2019-05-17T06:13:57.157Z,11.90
2019-05-17T06:16:42.716Z,12.10
2019-05-17T06:19:28.678Z,12.20
2019-05-17T06:22:13.651Z,12.30
2019-05-17T06:24:57.778Z,12.40
2019-05-17T06:27:42.223Z,12.50
2019-05-17T06:30:35.978Z,12.70
2019-05-17T06:33:30.720Z,12.70
2019-05-17T06:36:06.766Z,12.80
2019-05-17T06:38:52.743Z,12.80
2019-05-17T06:41:37.697Z,12.80
2019-05-17T06:44:22.352Z,12.90
2019-05-17T06:47:06.602Z,13.00
2019-05-17T06:50:03.213Z,13.10
2019-05-17T06:52:45.641Z,13.20
2019-05-17T06:55:39.165Z,13.40
2019-05-17T06:58:25.177Z,13.50
2019-05-17T07:01:10.295Z,13.40
2019-05-17T07:03:54.709Z,13.40
2019-05-17T07:06:40.468Z,13.30
2019-05-17T07:09:42.403Z,13.40
2019-05-17T07:12:36.197Z,13.60
2019-05-17T07:15:20.881Z,13.60
2019-05-17T07:18:05.677Z,13.60
2019-05-17T07:20:50.355Z,13.80
2019-05-17T07:23:34.862Z,13.90
2019-05-17T07:26:19.861Z,14.00
2019-05-17T07:29:04.710Z,14.10
2019-05-17T07:31:51.965Z,14.00
2019-05-17T07:34:45.540Z,14.00
2019-05-17T07:37:30.429Z,14.20
2019-05-17T07:40:15.066Z,14.20
2019-05-17T07:43:10.155Z,14.20
2019-05-17T07:45:46.317Z,14.20
2019-05-17T07:48:31.551Z,14.30
2019-05-17T07:51:25.298Z,14.30
2019-05-17T07:54:10.420Z,14.30
2019-05-17T07:57:04.201Z,14.30
2019-05-17T07:59:50.775Z,14.30
2019-05-17T08:02:35.498Z,14.40
2019-05-17T08:05:21.412Z,14.50
2019-05-17T08:08:06.221Z,14.70
2019-05-17T08:10:51.211Z,14.80
2019-05-17T08:13:36.258Z,14.90
2019-05-17T08:16:21.270Z,14.90
2019-05-17T08:19:06.263Z,14.90
2019-05-17T08:22:00.134Z,15.10
2019-05-17T08:24:44.370Z,15.10
2019-05-17T08:27:29.647Z,15.30
2019-05-17T08:30:23.635Z,15.40
2019-05-17T08:33:10.499Z,15.40
2019-05-17T08:36:04.475Z,15.50
2019-05-17T08:38:50.150Z,15.60
2019-05-17T08:41:34.576Z,15.70
2019-05-17T08:44:29.871Z,15.80
2019-05-17T08:47:24.134Z,15.90
2019-05-17T08:50:20.047Z,15.90
2019-05-17T08:53:13.402Z,15.80
2019-05-17T08:55:57.842Z,15.90
2019-05-17T08:58:42.606Z,16.00
2019-05-17T09:01:27.302Z,16.20
2019-05-17T09:04:12.365Z,16.40
2019-05-17T09:06:56.609Z,16.20
2019-05-17T09:09:50.358Z,16.10
2019-05-17T09:12:44.526Z,16.30
2019-05-17T09:15:29.763Z,16.30
2019-05-17T09:18:23.206Z,16.30
2019-05-17T09:21:09.660Z,16.40
2019-05-17T09:23:54.999Z,16.50
2019-05-17T09:26:49.238Z,16.60
2019-05-17T09:29:42.758Z,16.90
2019-05-17T09:32:29.638Z,17.10
2019-05-17T09:35:13.986Z,17.30
2019-05-17T09:38:00.492Z,17.40
2019-05-17T09:40:44.853Z,17.60
2019-05-17T09:43:29.955Z,17.80
2019-05-17T09:46:15.078Z,17.90
2019-05-17T09:49:01.202Z,18.10
2019-05-17T09:51:55.726Z,18.40
2019-05-17T09:54:50.395Z,18.50
2019-05-17T09:57:35.237Z,18.70
2019-05-17T10:00:20.794Z,18.80
2019-05-17T10:03:14.526Z,18.90
2019-05-17T10:05:59.986Z,19.10
2019-05-17T10:08:53.674Z,19.30
2019-05-17T10:14:50.040Z,19.70
2019-05-17T10:17:42.073Z,20.00
2019-05-17T10:20:35.956Z,20.20
2019-05-17T10:23:21.282Z,20.40
2019-05-17T10:26:20.581Z,20.60
2019-05-17T10:29:05.445Z,20.80
2019-05-17T10:31:50.499Z,20.90
2019-05-17T10:34:34.983Z,21.10
2019-05-17T10:37:20.437Z,21.20
2019-05-17T10:40:14.601Z,21.30
2019-05-17T10:43:10.011Z,21.50
2019-05-17T10:45:54.545Z,21.70
2019-05-17T10:48:41.089Z,21.70
2019-05-17T10:51:25.162Z,21.60
2019-05-17T10:54:09.697Z,21.60
2019-05-17T10:57:03.332Z,21.80
2019-05-17T10:59:49.957Z,22.10
2019-05-17T11:02:43.689Z,22.20
2019-05-17T11:05:30.613Z,22.50
2019-05-17T11:08:14.782Z,22.50
2019-05-17T11:10:59.873Z,22.70
2019-05-17T11:13:44.442Z,22.90
2019-05-17T11:16:29.075Z,23.10
2019-05-17T11:19:14.298Z,23.20
2019-05-17T11:21:58.987Z,23.40
2019-05-17T11:24:43.503Z,23.70
2019-05-17T11:27:28.991Z,24.10
2019-05-17T11:30:13.447Z,24.30
2019-05-17T11:32:58.324Z,24.50
2019-05-17T11:35:43.279Z,24.70
2019-05-17T11:38:27.973Z,24.80
2019-05-17T11:41:21.256Z,25.00
2019-05-17T11:43:59.426Z,25.20
2019-05-17T11:46:59.753Z,25.20
2019-05-17T11:49:53.425Z,25.20
2019-05-17T11:52:38.067Z,25.30
2019-05-17T11:55:22.518Z,25.40
2019-05-17T11:58:06.840Z,25.40
2019-05-17T12:01:00.022Z,25.60
2019-05-17T12:03:44.909Z,25.70
2019-05-17T12:06:29.722Z,25.70
2019-05-17T12:09:14.425Z,26.00
2019-05-17T12:11:59.228Z,26.10
2019-05-17T12:14:43.769Z,26.40
2019-05-17T12:17:28.539Z,26.60
2019-05-17T12:20:13.520Z,26.90
2019-05-17T12:22:57.998Z,27.10
2019-05-17T12:25:42.840Z,27.10
2019-05-17T12:28:37.854Z,27.10
2019-05-17T12:31:22.713Z,27.30
2019-05-17T12:34:07.367Z,27.30
2019-05-17T12:36:52.261Z,27.30
2019-05-17T12:39:37.059Z,27.50
2019-05-17T12:42:21.862Z,27.60
2019-05-17T12:45:06.732Z,27.90
2019-05-17T12:48:00.845Z,27.90
2019-05-17T12:50:55.162Z,27.20
2019-05-17T12:53:49.089Z,26.40
2019-05-17T12:56:33.405Z,25.80
2019-05-17T12:59:18.574Z,25.80
2019-05-17T13:02:03.162Z,26.10
2019-05-17T13:04:48.008Z,26.30
2019-05-17T13:07:33.110Z,26.20
2019-05-17T13:10:18.018Z,26.20
2019-05-17T13:13:11.552Z,26.30
2019-05-17T13:15:56.125Z,26.10
2019-05-17T13:18:41.138Z,26.10
2019-05-17T13:21:26.356Z,26.10
2019-05-17T13:24:11.521Z,26.10
2019-05-17T13:26:57.134Z,26.00
2019-05-17T13:29:41.806Z,25.90
2019-05-17T13:32:26.190Z,26.10
2019-05-17T13:35:39.571Z,26.30
2019-05-17T13:38:24.051Z,26.60
2019-05-17T13:41:18.364Z,27.00
2019-05-17T13:44:03.338Z,26.50
2019-05-17T13:46:48.077Z,26.50
2019-05-17T13:49:33.229Z,26.20
2019-05-17T13:52:26.996Z,25.90
2019-05-17T13:55:12.184Z,26.00
2019-05-17T13:58:06.230Z,26.00
2019-05-17T14:01:00.060Z,26.00
2019-05-17T14:03:45.203Z,25.90
2019-05-17T14:06:38.830Z,25.90
2019-05-17T14:09:23.943Z,25.80
2019-05-17T14:12:08.694Z,25.70
2019-05-17T14:14:53.372Z,25.30
2019-05-17T14:17:38.141Z,25.10
2019-05-17T14:20:22.844Z,25.00
2019-05-17T14:23:07.631Z,25.00
2019-05-17T14:25:52.354Z,24.80
2019-05-17T14:28:37.254Z,24.80
2019-05-17T14:31:21.970Z,24.80
2019-05-17T14:34:06.378Z,24.70
2019-05-17T14:36:51.453Z,24.70
2019-05-17T14:39:35.682Z,24.60
2019-05-17T14:42:29.143Z,24.50
2019-05-17T14:45:14.293Z,24.30
2019-05-17T14:48:08.291Z,24.10
2019-05-17T14:51:02.359Z,23.80
2019-05-17T14:53:47.277Z,23.70
2019-05-17T14:56:41.372Z,23.70
2019-05-17T14:59:26.127Z,23.60
2019-05-17T15:02:10.913Z,23.40
2019-05-17T15:04:56.242Z,23.20
2019-05-17T15:07:49.986Z,22.80
2019-05-17T15:10:34.677Z,22.40
2019-05-17T15:13:19.385Z,22.10
2019-05-17T15:16:04.274Z,22.00
2019-05-17T15:18:48.882Z,21.90
2019-05-17T15:21:33.527Z,21.70
2019-05-17T15:24:18.408Z,21.40
2019-05-17T15:27:05.860Z,21.10
2019-05-17T15:29:49.273Z,20.90
2019-05-17T15:32:33.841Z,21.00
2019-05-17T15:35:18.510Z,20.70
2019-05-17T15:38:12.126Z,20.40
2019-05-17T15:40:57.258Z,19.80
2019-05-17T15:43:51.015Z,19.40
2019-05-17T15:46:45.182Z,19.30
2019-05-17T15:49:39.106Z,19.00
2019-05-17T15:52:23.763Z,18.70
2019-05-17T15:55:09.329Z,18.40
2019-05-17T15:58:02.653Z,18.10
2019-05-17T16:00:47.666Z,17.70
2019-05-17T16:03:32.639Z,17.50
2019-05-17T16:06:29.154Z,17.30
2019-05-17T16:09:13.644Z,17.20
2019-05-17T16:12:07.269Z,17.20
2019-05-17T16:14:51.895Z,17.20
2019-05-17T16:17:36.486Z,17.20
2019-05-17T16:20:20.826Z,17.10
2019-05-17T16:23:05.685Z,17.20
2019-05-17T16:26:02.727Z,17.20
2019-05-17T16:28:47.239Z,17.30
2019-05-17T16:31:42.834Z,17.40
2019-05-17T16:34:27.637Z,17.40
2019-05-17T16:37:12.184Z,17.40
2019-05-17T16:39:56.322Z,17.50
2019-05-17T16:42:38.473Z,17.50
2019-05-17T16:45:22.970Z,17.50
2019-05-17T16:48:07.846Z,17.50
2019-05-17T16:50:52.359Z,17.60
2019-05-17T16:53:37.705Z,17.80
2019-05-17T16:56:21.958Z,17.70
2019-05-17T16:59:06.630Z,17.60
2019-05-17T17:02:00.414Z,17.50
2019-05-17T17:04:54.066Z,17.30
2019-05-17T17:07:39.041Z,17.30
2019-05-17T17:10:23.790Z,17.20
2019-05-17T17:13:08.581Z,17.30
2019-05-17T17:15:52.946Z,17.40
2019-05-17T17:18:37.408Z,17.30
2019-05-17T17:21:22.469Z,17.20
2019-05-17T17:24:07.607Z,17.30
2019-05-17T17:26:52.086Z,17.40
2019-05-17T17:29:36.729Z,17.50
2019-05-17T17:32:22.038Z,17.60
2019-05-17T17:35:07.023Z,17.90
2019-05-17T17:37:51.731Z,18.00
2019-05-17T17:40:36.410Z,18.10
2019-05-17T17:43:21.083Z,18.00
2019-05-17T17:46:05.899Z,17.90
2019-05-17T17:48:50.945Z,17.80
2019-05-17T17:51:24.215Z,17.90
2019-05-17T17:54:09.297Z,18.00
2019-05-17T17:56:54.230Z,17.90
2019-05-17T17:59:39.274Z,17.80
2019-05-17T18:02:36.275Z,17.70
2019-05-17T18:05:20.955Z,17.50
2019-05-17T18:08:15.008Z,17.50
2019-05-17T18:10:59.882Z,17.30
2019-05-17T18:13:44.360Z,17.30
2019-05-17T18:16:28.907Z,17.20
2019-05-17T18:19:13.465Z,17.20
2019-05-17T18:21:58.121Z,17.20
2019-05-17T18:24:43.899Z,17.20
2019-05-17T18:27:28.546Z,17.20
2019-05-17T18:30:13.678Z,17.20
2019-05-17T18:32:58.347Z,17.10
2019-05-17T18:35:42.811Z,17.10
2019-05-17T18:38:27.605Z,17.00
2019-05-17T18:41:12.662Z,17.00
2019-05-17T18:43:57.825Z,17.00
2019-05-17T18:46:52.171Z,17.00
2019-05-17T18:49:45.910Z,17.00
2019-05-17T18:52:31.077Z,17.10
2019-05-17T18:55:25.019Z,17.10
2019-05-17T18:58:19.110Z,17.10
2019-05-17T19:01:13.344Z,16.90
2019-05-17T19:04:07.369Z,16.90
2019-05-17T19:06:52.305Z,16.80
2019-05-17T19:09:45.846Z,16.70
2019-05-17T19:12:30.786Z,16.50
2019-05-17T19:15:15.334Z,16.30
2019-05-17T19:18:00.043Z,16.10
2019-05-17T19:20:45.651Z,16.10
2019-05-17T19:23:39.414Z,16.00
2019-05-17T19:26:24.124Z,16.00
2019-05-17T19:29:08.279Z,15.90
2019-05-17T19:32:00.535Z,16.10
2019-05-17T19:34:54.438Z,15.80
2019-05-17T19:37:39.398Z,15.60
2019-05-17T19:40:33.346Z,15.40
2019-05-17T19:43:18.205Z,15.40
2019-05-17T19:46:03.222Z,15.20
2019-05-17T19:48:56.761Z,15.00
2019-05-17T19:51:41.539Z,14.80
2019-05-17T19:54:26.403Z,14.40
2019-05-17T19:57:11.754Z,14.20
2019-05-17T20:00:05.354Z,14.20
2019-05-17T20:02:49.905Z,14.20
2019-05-17T20:05:34.936Z,14.10
2019-05-17T20:08:19.622Z,14.00
2019-05-17T20:11:04.348Z,13.90
2019-05-17T20:13:48.857Z,14.00
2019-05-17T20:16:33.562Z,14.20
2019-05-17T20:19:18.318Z,14.50
2019-05-17T20:22:11.734Z,14.70
2019-05-17T20:24:56.862Z,14.60
2019-05-17T20:27:50.358Z,14.60
2019-05-17T20:30:35.477Z,14.60
2019-05-17T20:33:20.317Z,14.70
2019-05-17T20:36:04.842Z,14.60
2019-05-17T20:38:49.620Z,14.50
2019-05-17T20:41:34.637Z,14.40
2019-05-17T20:44:19.241Z,14.60
2019-05-17T20:47:04.042Z,14.80
2019-05-17T20:49:48.330Z,14.80
2019-05-17T20:52:32.941Z,14.70
2019-05-17T20:55:27.401Z,14.70
2019-05-17T20:58:22.026Z,14.60
2019-05-17T21:01:06.807Z,14.40
2019-05-17T21:03:52.498Z,14.30
2019-05-17T21:06:36.834Z,14.30
2019-05-17T21:09:30.414Z,14.60
2019-05-17T21:12:14.997Z,14.50
2019-05-17T21:14:59.873Z,14.40
2019-05-17T21:17:45.075Z,14.50
2019-05-17T21:20:29.854Z,14.40
2019-05-17T21:23:14.188Z,14.40
2019-05-17T21:25:59.536Z,14.40
2019-05-17T21:28:47.165Z,14.50
2019-05-17T21:31:49.491Z,14.60
2019-05-17T21:34:34.097Z,14.60
2019-05-17T21:37:18.922Z,14.70
2019-05-17T21:40:03.656Z,14.80
2019-05-17T21:42:48.885Z,14.80
2019-05-17T21:45:33.722Z,14.90
2019-05-17T21:48:18.852Z,15.00
2019-05-17T21:51:12.554Z,15.00
2019-05-17T21:53:57.270Z,15.00
2019-05-17T21:57:00.940Z,15.00
2019-05-17T21:59:53.330Z,15.10
2019-05-17T22:02:38.842Z,15.10
2019-05-17T22:05:24.070Z,15.10
2019-05-17T22:08:18.206Z,15.20
2019-05-17T22:11:12.266Z,15.30
2019-05-17T22:14:06.131Z,15.40
2019-05-17T22:16:50.891Z,15.40
2019-05-17T22:19:35.514Z,15.30
2019-05-17T22:22:20.779Z,15.10
2019-05-17T22:25:14.518Z,15.20
2019-05-17T22:27:59.219Z,15.40
2019-05-17T22:30:44.218Z,15.50
2019-05-17T22:33:28.700Z,15.60
2019-05-17T22:36:13.634Z,15.60
2019-05-17T22:38:58.442Z,15.70
2019-05-17T22:41:42.962Z,15.80
2019-05-17T22:44:27.387Z,15.70
2019-05-17T22:47:20.704Z,15.50
2019-05-17T22:50:05.617Z,15.30
2019-05-17T22:52:50.526Z,15.20
2019-05-17T22:55:35.190Z,15.20
2019-05-17T22:58:19.988Z,15.40
2019-05-17T23:01:04.628Z,15.40
2019-05-17T23:03:49.601Z,15.40
2019-05-17T23:06:34.234Z,15.50
2019-05-17T23:09:18.505Z,15.40
2019-05-17T23:12:03.118Z,15.40
2019-05-17T23:14:56.397Z,15.40
2019-05-17T23:17:40.891Z,15.40
2019-05-17T23:20:26.034Z,15.20
2019-05-17T23:23:10.325Z,14.90
2019-05-17T23:25:55.181Z,14.70
2019-05-17T23:28:40.358Z,14.50
2019-05-17T23:31:24.794Z,14.40
2019-05-17T23:34:09.644Z,14.30
2019-05-17T23:36:54.832Z,14.10
2019-05-17T23:39:39.804Z,14.10
2019-05-17T23:42:24.106Z,14.20
2019-05-17T23:45:08.703Z,14.20
2019-05-17T23:47:53.705Z,14.20
2019-05-17T23:50:38.849Z,14.00
2019-05-17T23:53:23.231Z,14.00
2019-05-17T23:56:09.642Z,14.00
2019-05-17T23:58:54.665Z,13.90
